Hauptseite
METAR-TAF:

METAR-TAF

Flughäfen :

Awg-1, Niederlande

Bohrplattform

Breite: 53-29-30N, Länge: 5-56-30E, Höhe: 33 m

Beobachtung

Neuester Wetterbericht von vor 33 Minuten, um 08:25 UTC
Wind 29 kt aus Süd/Südwest
Temperatur 8°C
Luftfeuchtigkeit 93%
Luftdruck 997 hPa
Sichtweite: 6000 m
Leicht bewölkt in der Höhe von 1000 ft
Aufgelockert bewölkt in der Höhe von 3300 ft
Durchbrochene Bewölkung in der Höhe von 3700 ft

METAR: EHMA 270825Z AUTO 20029KT 6000 FEW010 SCT033 BKN037 08/07 Q0997

Zeit: 09:58 (08:58 UTC)


TAF: fehlend

Wetterbeobachtungen und Prognosen von mehr als 4000 Flughäfen (METAR und TAF Bericht).

Die verfügbaren Stationen werden durch gelbe und rote Markierungen auf der Karte dargestellt.

Führen Sie die Maus auf sie, um den Namen der Station zu sehen.

Darauf klicken, um die Beobachtung von Wetterbeobachtungen und Prognosen zu sehen.

Um die Karte zu ändern : klicken Sie auf den grünen Tasten mit einem schwarzen Kreuz Zum Vergrößern, auf den grünen Button mit einem Gedankenstrich zu verkleinern, oder auf die grünen Pfeile für benachbarte Karten.


METAR-TAF: